createdAt,value
2018-05-17T00:00:03.581Z,14.80
2018-05-17T00:01:06.107Z,14.80
2018-05-17T00:02:09.439Z,14.70
2018-05-17T00:03:11.963Z,14.70
2018-05-17T00:04:14.499Z,14.80
2018-05-17T00:05:17.036Z,14.70
2018-05-17T00:06:20.329Z,14.80
2018-05-17T00:07:22.904Z,14.80
2018-05-17T00:08:25.436Z,14.80
2018-05-17T00:09:27.961Z,14.80
2018-05-17T00:10:31.252Z,14.70
2018-05-17T00:11:34.545Z,14.70
2018-05-17T00:12:37.879Z,14.70
2018-05-17T00:13:40.396Z,14.70
2018-05-17T00:14:42.935Z,14.70
2018-05-17T00:15:49.418Z,14.70
2018-05-17T00:16:52.705Z,14.70
2018-05-17T00:17:55.276Z,14.70
2018-05-17T00:18:57.811Z,14.70
2018-05-17T00:20:00.345Z,14.60
2018-05-17T00:21:02.916Z,14.50
2018-05-17T00:22:05.452Z,14.50
2018-05-17T00:23:07.990Z,14.50
2018-05-17T00:24:11.276Z,14.50
2018-05-17T00:25:14.584Z,14.40
2018-05-17T00:26:17.165Z,14.40
2018-05-17T00:27:19.694Z,14.40
2018-05-17T00:28:22.999Z,14.50
2018-05-17T00:29:25.525Z,14.50
2018-05-17T00:30:28.057Z,14.50
2018-05-17T00:31:30.620Z,14.50
2018-05-17T00:32:34.911Z,14.50
2018-05-17T00:33:37.436Z,14.50
2018-05-17T00:34:40.745Z,14.50
2018-05-17T00:35:43.357Z,14.40
2018-05-17T00:36:45.872Z,14.50
2018-05-17T00:37:49.205Z,14.40
2018-05-17T00:38:51.747Z,14.40
2018-05-17T00:39:54.280Z,14.40
2018-05-17T00:40:57.584Z,14.40
2018-05-17T00:42:00.151Z,14.40
2018-05-17T00:43:02.685Z,14.40
2018-05-17T00:44:05.218Z,14.40
2018-05-17T00:45:07.756Z,14.40
2018-05-17T00:46:10.284Z,14.40
2018-05-17T00:47:13.620Z,14.30
2018-05-17T00:48:16.179Z,14.30
2018-05-17T00:49:18.724Z,14.30
2018-05-17T00:50:22.028Z,14.30
2018-05-17T00:51:24.572Z,14.30
2018-05-17T00:52:27.914Z,14.20
2018-05-17T00:53:31.275Z,14.20
2018-05-17T00:54:33.817Z,14.20
2018-05-17T00:55:36.349Z,14.10
2018-05-17T00:56:39.665Z,14.20
2018-05-17T00:57:42.241Z,14.20
2018-05-17T00:58:44.763Z,14.20
2018-05-17T00:59:47.306Z,14.20
2018-05-17T01:00:49.834Z,14.20
2018-05-17T01:01:52.404Z,14.10
2018-05-17T01:02:55.836Z,14.20
2018-05-17T01:03:58.382Z,14.20
2018-05-17T01:05:00.929Z,14.10
2018-05-17T01:06:03.449Z,14.10
2018-05-17T01:07:05.978Z,14.10
2018-05-17T01:08:08.563Z,14.10
2018-05-17T01:09:11.135Z,14.00
2018-05-17T01:10:13.661Z,14.00
2018-05-17T01:11:16.194Z,14.00
2018-05-17T01:12:19.491Z,14.00
2018-05-17T01:13:22.775Z,14.00
2018-05-17T01:14:26.127Z,13.90
2018-05-17T01:15:28.663Z,13.90
2018-05-17T01:16:31.199Z,14.00
2018-05-17T01:17:33.740Z,14.00
2018-05-17T01:18:36.284Z,14.00
2018-05-17T01:19:38.852Z,14.00
2018-05-17T01:20:41.385Z,14.00
2018-05-17T01:21:43.916Z,13.90
2018-05-17T01:22:47.216Z,14.00
2018-05-17T01:23:49.781Z,14.00
2018-05-17T01:24:52.312Z,13.90
2018-05-17T01:25:54.832Z,13.90
2018-05-17T01:26:57.406Z,13.90
2018-05-17T01:27:59.941Z,13.90
2018-05-17T01:29:03.248Z,13.80
2018-05-17T01:30:05.811Z,13.80
2018-05-17T01:31:08.345Z,13.80
2018-05-17T01:32:11.672Z,13.90
2018-05-17T01:33:14.228Z,13.90
2018-05-17T01:34:16.768Z,14.00
2018-05-17T01:35:20.053Z,14.00
2018-05-17T01:36:23.357Z,13.90
2018-05-17T01:37:37.807Z,13.90
2018-05-17T01:38:40.335Z,13.90
2018-05-17T01:39:42.855Z,13.90
2018-05-17T01:40:45.400Z,14.00
2018-05-17T01:41:47.968Z,14.00
2018-05-17T01:42:50.504Z,14.00
2018-05-17T01:43:53.796Z,14.00
2018-05-17T01:44:57.099Z,14.00
2018-05-17T01:45:59.640Z,14.00
2018-05-17T01:47:02.964Z,14.00
2018-05-17T01:48:05.544Z,14.00
2018-05-17T01:49:08.076Z,14.00
2018-05-17T01:50:10.610Z,14.00
2018-05-17T01:51:13.136Z,14.00
2018-05-17T01:52:15.674Z,14.10
2018-05-17T01:53:18.236Z,14.00
2018-05-17T01:54:20.768Z,14.00
2018-05-17T01:55:23.308Z,13.90
2018-05-17T01:56:25.829Z,13.90
2018-05-17T01:57:28.363Z,13.90
2018-05-17T01:58:30.920Z,13.90
2018-05-17T01:59:33.491Z,13.90
2018-05-17T02:00:36.025Z,13.90
2018-05-17T02:01:38.548Z,13.90
2018-05-17T02:02:41.844Z,13.80
2018-05-17T02:03:45.183Z,13.80
2018-05-17T02:04:47.715Z,13.70
2018-05-17T02:05:50.268Z,13.70
2018-05-17T02:06:52.812Z,13.60
2018-05-17T02:07:55.349Z,13.50
2018-05-17T02:08:57.875Z,13.50
2018-05-17T02:10:00.439Z,13.40
2018-05-17T02:11:02.985Z,13.40
2018-05-17T02:12:06.317Z,13.20
2018-05-17T02:13:08.844Z,13.20
2018-05-17T02:14:12.172Z,13.20
2018-05-17T02:15:14.700Z,13.20
2018-05-17T02:16:17.997Z,13.20
2018-05-17T02:17:20.572Z,13.20
2018-05-17T02:18:23.096Z,13.10
2018-05-17T02:19:26.395Z,13.10
2018-05-17T02:20:29.686Z,13.10
2018-05-17T02:21:32.213Z,13.10
2018-05-17T02:22:34.800Z,13.20
2018-05-17T02:23:38.099Z,13.10
2018-05-17T02:24:41.384Z,13.10
2018-05-17T02:25:44.688Z,13.20
2018-05-17T02:26:47.223Z,13.10
2018-05-17T02:27:50.561Z,13.20
2018-05-17T02:28:53.089Z,13.10
2018-05-17T02:29:55.622Z,13.10
2018-05-17T02:30:58.171Z,13.10
2018-05-17T02:32:00.702Z,13.10
2018-05-17T02:33:03.258Z,13.00
2018-05-17T02:34:05.783Z,13.10
2018-05-17T02:35:08.314Z,13.10
2018-05-17T02:36:10.840Z,13.00
2018-05-17T02:37:14.135Z,12.90
2018-05-17T02:38:16.701Z,12.90
2018-05-17T02:39:19.227Z,12.80
2018-05-17T02:40:21.747Z,12.80
2018-05-17T02:41:24.267Z,12.80
2018-05-17T02:42:26.796Z,12.70
2018-05-17T02:43:29.357Z,12.80
2018-05-17T02:44:31.892Z,12.80
2018-05-17T02:45:35.221Z,12.70
2018-05-17T02:46:37.752Z,12.70
2018-05-17T02:47:40.277Z,12.70
2018-05-17T02:48:42.800Z,12.60
2018-05-17T02:49:45.361Z,12.60
2018-05-17T02:50:47.940Z,12.60
2018-05-17T02:51:50.466Z,12.70
2018-05-17T02:52:53.767Z,12.60
2018-05-17T02:53:56.304Z,12.60
2018-05-17T02:54:58.845Z,12.70
2018-05-17T02:56:01.411Z,12.60
2018-05-17T02:57:03.978Z,12.60
2018-05-17T02:58:06.500Z,12.60
2018-05-17T02:59:09.039Z,12.60
2018-05-17T03:00:12.334Z,12.60
2018-05-17T03:01:15.628Z,12.60
2018-05-17T03:02:18.961Z,12.50
2018-05-17T03:03:22.627Z,12.50
2018-05-17T03:04:25.152Z,12.40
2018-05-17T03:05:28.448Z,12.40
2018-05-17T03:06:31.870Z,12.40
2018-05-17T03:07:34.413Z,12.40
2018-05-17T03:08:36.938Z,12.40
2018-05-17T03:09:39.469Z,12.40
2018-05-17T03:10:41.996Z,12.40
2018-05-17T03:11:45.328Z,12.30
2018-05-17T03:12:47.857Z,12.30
2018-05-17T03:13:50.382Z,12.20
2018-05-17T03:14:52.908Z,12.30
2018-05-17T03:15:55.471Z,12.30
2018-05-17T03:16:57.988Z,12.30
2018-05-17T03:18:00.549Z,12.20
2018-05-17T03:19:03.075Z,12.20
2018-05-17T03:20:05.591Z,12.20
2018-05-17T03:21:08.113Z,12.10
2018-05-17T03:22:10.642Z,12.10
2018-05-17T03:23:13.218Z,12.10
2018-05-17T03:24:15.743Z,12.00
2018-05-17T03:25:18.278Z,12.00
2018-05-17T03:26:20.799Z,12.00
2018-05-17T03:27:24.081Z,11.90
2018-05-17T03:28:27.399Z,12.00
2018-05-17T03:29:29.910Z,12.00
2018-05-17T03:30:32.445Z,12.00
2018-05-17T03:31:34.982Z,12.00
2018-05-17T03:32:37.512Z,12.00
2018-05-17T03:33:40.093Z,12.10
2018-05-17T03:34:43.379Z,12.10
2018-05-17T03:35:46.676Z,12.20
2018-05-17T03:36:49.964Z,12.20
2018-05-17T03:37:53.246Z,12.20
2018-05-17T03:38:56.567Z,12.20
2018-05-17T03:39:59.097Z,12.20
2018-05-17T03:41:02.381Z,12.10
2018-05-17T03:42:04.943Z,12.10
2018-05-17T03:43:08.229Z,12.20
2018-05-17T03:44:11.547Z,12.20
2018-05-17T03:45:14.067Z,12.20
2018-05-17T03:46:17.375Z,12.10
2018-05-17T03:47:19.935Z,12.10
2018-05-17T03:48:22.461Z,12.00
2018-05-17T03:49:24.991Z,12.00
2018-05-17T03:50:27.519Z,12.10
2018-05-17T03:51:30.811Z,12.00
2018-05-17T03:52:34.137Z,11.90
2018-05-17T03:53:36.668Z,11.90
2018-05-17T03:54:39.194Z,11.90
2018-05-17T03:55:41.720Z,12.00
2018-05-17T03:56:44.283Z,12.00
2018-05-17T03:57:46.836Z,12.00
2018-05-17T03:58:49.375Z,12.10
2018-05-17T03:59:51.930Z,12.00
2018-05-17T04:01:06.168Z,12.00
2018-05-17T04:02:20.557Z,12.00
2018-05-17T04:03:34.909Z,12.00
2018-05-17T04:04:49.292Z,12.10
2018-05-17T04:06:03.740Z,12.10
2018-05-17T04:07:06.256Z,12.10
2018-05-17T04:08:08.812Z,12.00
2018-05-17T04:09:12.099Z,12.00
2018-05-17T04:10:14.665Z,12.00
2018-05-17T04:11:17.188Z,12.10
2018-05-17T04:12:19.712Z,12.10
2018-05-17T04:13:22.236Z,12.00
2018-05-17T04:14:24.762Z,12.00
2018-05-17T04:15:27.392Z,12.00
2018-05-17T04:16:30.716Z,12.10
2018-05-17T04:17:33.248Z,12.10
2018-05-17T04:18:35.775Z,12.10
2018-05-17T04:19:38.295Z,12.10
2018-05-17T04:20:40.851Z,12.00
2018-05-17T04:21:43.399Z,12.00
2018-05-17T04:22:46.721Z,12.00
2018-05-17T04:23:49.242Z,12.10
2018-05-17T04:24:52.533Z,12.00
2018-05-17T04:25:55.829Z,12.00
2018-05-17T04:26:58.389Z,12.00
2018-05-17T04:28:01.676Z,12.00
2018-05-17T04:29:04.255Z,12.00
2018-05-17T04:30:06.831Z,12.10
2018-05-17T04:31:09.352Z,12.10
2018-05-17T04:32:11.893Z,12.00
2018-05-17T04:33:14.429Z,12.10
2018-05-17T04:34:16.952Z,12.10
2018-05-17T04:35:19.510Z,12.10
2018-05-17T04:36:22.042Z,12.00
2018-05-17T04:37:24.576Z,12.10
2018-05-17T04:38:27.870Z,12.10
2018-05-17T04:39:30.404Z,12.10
2018-05-17T04:40:33.016Z,12.20
2018-05-17T04:41:36.271Z,12.20
2018-05-17T04:42:39.558Z,12.30
2018-05-17T04:43:42.099Z,12.20
2018-05-17T04:44:44.659Z,12.30
2018-05-17T04:45:47.179Z,12.30
2018-05-17T04:46:49.713Z,12.30
2018-05-17T04:47:53.011Z,12.40
2018-05-17T04:48:55.543Z,12.40
2018-05-17T04:49:58.901Z,12.40
2018-05-17T04:51:01.425Z,12.40
2018-05-17T04:52:03.967Z,12.40
2018-05-17T04:53:06.488Z,12.50
2018-05-17T04:54:09.027Z,12.40
2018-05-17T04:55:11.612Z,12.40
2018-05-17T04:56:14.143Z,12.30
2018-05-17T04:57:17.483Z,12.40
2018-05-17T04:58:20.028Z,12.40
2018-05-17T04:59:22.561Z,12.50
2018-05-17T05:00:25.891Z,12.50
2018-05-17T05:01:28.408Z,12.50
2018-05-17T05:02:31.743Z,12.60
2018-05-17T05:03:34.251Z,12.60
2018-05-17T05:04:36.784Z,12.60
2018-05-17T05:05:39.352Z,12.60
2018-05-17T05:06:41.878Z,12.60
2018-05-17T05:07:44.435Z,12.70
2018-05-17T05:08:47.731Z,12.80
2018-05-17T05:09:50.252Z,12.70
2018-05-17T05:10:52.776Z,12.80
2018-05-17T05:11:55.332Z,12.80
2018-05-17T05:12:57.868Z,12.70
2018-05-17T05:14:01.152Z,12.60
2018-05-17T05:15:04.477Z,12.50
2018-05-17T05:16:07.009Z,12.50
2018-05-17T05:17:10.342Z,12.50
2018-05-17T05:18:12.880Z,12.50
2018-05-17T05:19:15.412Z,12.60
2018-05-17T05:20:17.932Z,12.60
2018-05-17T05:21:20.458Z,12.60
2018-05-17T05:22:23.813Z,12.50
2018-05-17T05:23:26.346Z,12.50
2018-05-17T05:24:28.867Z,12.60
2018-05-17T05:25:32.175Z,12.80
2018-05-17T05:26:34.710Z,12.70
2018-05-17T05:27:37.278Z,12.70
2018-05-17T05:28:39.818Z,12.70
2018-05-17T05:29:42.347Z,12.60
2018-05-17T05:30:44.866Z,12.60
2018-05-17T05:31:47.391Z,12.60
2018-05-17T05:32:49.982Z,12.80
2018-05-17T05:33:52.506Z,12.80
2018-05-17T05:34:55.032Z,12.80
2018-05-17T05:35:57.577Z,12.90
2018-05-17T05:37:00.127Z,12.80
2018-05-17T05:38:02.656Z,12.90
2018-05-17T05:39:07.771Z,13.00
2018-05-17T05:40:10.327Z,12.90
2018-05-17T05:41:12.869Z,12.90
2018-05-17T05:42:15.407Z,13.00
2018-05-17T05:43:17.982Z,13.00
2018-05-17T05:44:20.516Z,13.00
2018-05-17T05:45:23.796Z,13.10
2018-05-17T05:46:27.096Z,13.10
2018-05-17T05:47:29.626Z,13.00
2018-05-17T05:48:32.144Z,13.10
2018-05-17T05:49:34.724Z,13.00
2018-05-17T05:50:37.242Z,12.90
2018-05-17T05:51:40.531Z,12.80
2018-05-17T05:52:43.829Z,12.90
2018-05-17T05:53:46.408Z,12.90
2018-05-17T05:54:48.928Z,12.80
2018-05-17T05:55:51.446Z,12.80
2018-05-17T05:56:53.975Z,12.90
2018-05-17T05:57:57.264Z,12.90
2018-05-17T05:59:00.583Z,12.90
2018-05-17T06:00:03.105Z,12.90
2018-05-17T06:01:06.406Z,13.00
2018-05-17T06:02:08.942Z,13.00
2018-05-17T06:03:11.521Z,13.20
2018-05-17T06:04:14.853Z,13.30
2018-05-17T06:05:17.385Z,13.30
2018-05-17T06:06:19.953Z,13.20
2018-05-17T06:07:22.494Z,13.20
2018-05-17T06:08:25.108Z,13.20
2018-05-17T06:09:27.575Z,13.30
2018-05-17T06:10:30.110Z,13.30
2018-05-17T06:11:33.449Z,13.30
2018-05-17T06:12:35.970Z,13.30
2018-05-17T06:13:38.495Z,13.20
2018-05-17T06:14:41.039Z,13.20
2018-05-17T06:15:43.597Z,13.20
2018-05-17T06:16:46.181Z,13.20
2018-05-17T06:17:48.717Z,13.20
2018-05-17T06:18:51.247Z,13.20
2018-05-17T06:19:54.541Z,13.20
2018-05-17T06:20:57.850Z,13.20
2018-05-17T06:22:00.423Z,13.20
2018-05-17T06:23:02.954Z,13.30
2018-05-17T06:24:06.245Z,13.20
2018-05-17T06:25:09.544Z,13.20
2018-05-17T06:26:12.071Z,13.20
2018-05-17T06:27:14.909Z,13.20
2018-05-17T06:28:17.442Z,13.20
2018-05-17T06:29:19.987Z,13.30
2018-05-17T06:30:23.306Z,13.30
2018-05-17T06:31:25.888Z,13.30
2018-05-17T06:32:28.446Z,13.30
2018-05-17T06:33:30.977Z,13.30
2018-05-17T06:34:34.267Z,13.20
2018-05-17T06:35:37.584Z,13.20
2018-05-17T06:36:40.154Z,13.20
2018-05-17T06:37:42.772Z,13.10
2018-05-17T06:38:45.234Z,13.20
2018-05-17T06:39:47.767Z,13.10
2018-05-17T06:40:50.296Z,13.10
2018-05-17T06:41:52.867Z,13.00
2018-05-17T06:42:55.402Z,13.10
2018-05-17T06:43:57.973Z,13.10
2018-05-17T06:45:00.485Z,13.10
2018-05-17T06:46:03.007Z,13.20
2018-05-17T06:47:06.336Z,13.10
2018-05-17T06:48:08.889Z,13.10
2018-05-17T06:49:11.468Z,13.10
2018-05-17T06:50:13.995Z,13.10
2018-05-17T06:51:17.291Z,13.10
2018-05-17T06:52:19.839Z,13.10
2018-05-17T06:53:23.139Z,13.00
2018-05-17T06:54:26.479Z,12.90
2018-05-17T06:55:28.996Z,12.90
2018-05-17T06:56:31.547Z,12.90
2018-05-17T06:57:34.841Z,12.90
2018-05-17T06:58:38.143Z,12.90
2018-05-17T06:59:40.716Z,12.90
2018-05-17T07:00:43.335Z,12.90
2018-05-17T07:01:45.816Z,13.00
2018-05-17T07:02:49.118Z,13.10
2018-05-17T07:03:51.669Z,13.10
2018-05-17T07:04:55.004Z,13.10
2018-05-17T07:05:57.532Z,13.10
2018-05-17T07:07:00.057Z,13.00
2018-05-17T07:08:02.601Z,13.00
2018-05-17T07:09:05.921Z,13.00
2018-05-17T07:10:09.263Z,13.10
2018-05-17T07:11:11.802Z,13.10
2018-05-17T07:12:14.341Z,13.20
2018-05-17T07:13:16.879Z,13.30
2018-05-17T07:14:19.400Z,13.30
2018-05-17T07:15:21.956Z,13.40
2018-05-17T07:16:24.484Z,13.40
2018-05-17T07:17:27.014Z,13.50
2018-05-17T07:18:29.686Z,13.50
2018-05-17T07:19:32.091Z,13.40
2018-05-17T07:20:34.659Z,13.50
2018-05-17T07:21:37.192Z,13.40
2018-05-17T07:22:39.726Z,13.30
2018-05-17T07:23:42.254Z,13.30
2018-05-17T07:24:44.785Z,13.30
2018-05-17T07:25:47.343Z,13.30
2018-05-17T07:26:49.872Z,13.40
2018-05-17T07:27:53.175Z,13.40
2018-05-17T07:28:55.719Z,13.40
2018-05-17T07:29:59.015Z,13.50
2018-05-17T07:31:02.338Z,13.60
2018-05-17T07:32:04.872Z,13.60
2018-05-17T07:33:08.169Z,13.90
2018-05-17T07:34:10.697Z,13.90
2018-05-17T07:35:13.229Z,14.10
2018-05-17T07:36:15.791Z,14.00
2018-05-17T07:37:18.316Z,14.10
2018-05-17T07:38:21.636Z,14.20
2018-05-17T07:39:24.171Z,14.20
2018-05-17T07:40:26.703Z,14.30
2018-05-17T07:41:29.275Z,14.30
2018-05-17T07:42:32.578Z,14.40
2018-05-17T07:43:35.919Z,14.50
2018-05-17T07:44:38.490Z,14.50
2018-05-17T07:45:41.011Z,14.40
2018-05-17T07:46:43.620Z,14.50
2018-05-17T07:47:46.856Z,14.50
2018-05-17T07:48:50.148Z,14.50
2018-05-17T07:49:52.697Z,14.50
2018-05-17T07:50:55.990Z,14.70
2018-05-17T07:51:59.276Z,14.60
2018-05-17T07:53:01.845Z,14.60
2018-05-17T07:54:04.364Z,14.50
2018-05-17T07:55:06.887Z,14.50
2018-05-17T07:56:09.427Z,14.60
2018-05-17T07:57:12.760Z,14.70
2018-05-17T07:58:15.323Z,14.70
2018-05-17T07:59:17.848Z,14.80
2018-05-17T08:00:20.406Z,14.90
2018-05-17T08:01:23.707Z,14.70
2018-05-17T08:02:26.235Z,14.80
2018-05-17T08:03:28.779Z,14.80
2018-05-17T08:04:31.343Z,14.80
2018-05-17T08:05:33.871Z,14.70
2018-05-17T08:06:36.404Z,14.70
2018-05-17T08:07:38.940Z,14.70
2018-05-17T08:08:41.475Z,14.80
2018-05-17T08:09:44.032Z,14.90
2018-05-17T08:10:47.319Z,14.90
2018-05-17T08:11:50.607Z,14.90
2018-05-17T08:12:53.154Z,14.90
2018-05-17T08:13:56.443Z,14.50
2018-05-17T08:14:59.736Z,14.50
2018-05-17T08:16:02.265Z,14.50
2018-05-17T08:17:04.830Z,14.50
2018-05-17T08:18:07.361Z,14.50
2018-05-17T08:19:09.941Z,14.60
2018-05-17T08:20:12.505Z,14.70
2018-05-17T08:21:15.071Z,14.80
2018-05-17T08:22:17.603Z,14.70
2018-05-17T08:23:20.165Z,14.70
2018-05-17T08:24:23.469Z,14.90
2018-05-17T08:25:26.000Z,14.90
2018-05-17T08:26:29.292Z,15.00
2018-05-17T08:27:32.630Z,15.00
2018-05-17T08:28:35.145Z,15.00
2018-05-17T08:29:39.364Z,14.90
2018-05-17T08:30:41.892Z,14.90
2018-05-17T08:31:44.424Z,14.90
2018-05-17T08:32:46.976Z,14.90
2018-05-17T08:33:49.496Z,14.90
2018-05-17T08:34:52.015Z,14.90
2018-05-17T08:35:54.539Z,14.70
2018-05-17T08:36:57.837Z,14.60
2018-05-17T08:38:00.421Z,14.60
2018-05-17T08:39:02.948Z,14.70
2018-05-17T08:40:05.480Z,14.70
2018-05-17T08:41:08.008Z,14.80
2018-05-17T08:42:10.542Z,14.80
2018-05-17T08:43:13.106Z,15.00
2018-05-17T08:44:15.639Z,15.00
2018-05-17T08:45:18.164Z,14.90
2018-05-17T08:46:20.701Z,15.00
2018-05-17T08:47:23.236Z,15.00
2018-05-17T08:48:25.793Z,15.10
2018-05-17T08:49:28.311Z,15.20
2018-05-17T08:50:30.827Z,15.40
2018-05-17T08:51:33.381Z,15.40
2018-05-17T08:52:35.922Z,15.50
2018-05-17T08:53:39.209Z,15.60
2018-05-17T08:54:41.776Z,15.50
2018-05-17T08:55:45.072Z,15.60
2018-05-17T08:56:47.647Z,15.60
2018-05-17T08:57:50.166Z,15.50
2018-05-17T08:58:52.703Z,15.50
2018-05-17T08:59:55.280Z,15.50
2018-05-17T09:00:57.800Z,15.60
2018-05-17T09:02:00.371Z,15.50
2018-05-17T09:03:02.892Z,15.60
2018-05-17T09:04:05.416Z,15.70
2018-05-17T09:05:07.950Z,15.70
2018-05-17T09:06:11.276Z,15.80
2018-05-17T09:07:13.839Z,15.80
2018-05-17T09:08:16.394Z,15.90
2018-05-17T09:09:18.909Z,16.00
2018-05-17T09:10:21.442Z,15.90
2018-05-17T09:11:23.991Z,15.70
2018-05-17T09:12:26.561Z,15.60
2018-05-17T09:13:29.101Z,15.50
2018-05-17T09:14:32.395Z,15.40
2018-05-17T09:15:35.683Z,15.40
2018-05-17T09:16:38.239Z,15.40
2018-05-17T09:17:41.523Z,15.60
2018-05-17T09:18:44.854Z,15.50
2018-05-17T09:19:47.375Z,15.50
2018-05-17T09:20:50.663Z,15.60
2018-05-17T09:21:53.947Z,15.70
2018-05-17T09:22:57.275Z,15.80
2018-05-17T09:23:59.827Z,15.80
2018-05-17T09:25:02.348Z,15.80
2018-05-17T09:26:05.640Z,15.70
2018-05-17T09:27:08.944Z,15.80
2018-05-17T09:28:11.511Z,15.80
2018-05-17T09:29:14.085Z,15.80
2018-05-17T09:30:17.362Z,16.00
2018-05-17T09:31:19.891Z,15.90
2018-05-17T09:32:22.420Z,15.90
2018-05-17T09:33:24.983Z,15.90
2018-05-17T09:34:27.531Z,15.80
2018-05-17T09:35:30.049Z,15.80
2018-05-17T09:36:32.588Z,15.90
2018-05-17T09:37:35.143Z,15.80
2018-05-17T09:38:37.712Z,15.60
2018-05-17T09:39:40.249Z,15.60
2018-05-17T09:40:42.788Z,15.70
2018-05-17T09:41:45.313Z,15.80
2018-05-17T09:42:47.831Z,15.80
2018-05-17T09:43:51.148Z,16.10
2018-05-17T09:44:53.672Z,16.00
2018-05-17T09:45:56.962Z,15.80
2018-05-17T09:47:00.252Z,15.80
2018-05-17T09:48:03.543Z,15.90
2018-05-17T09:49:06.426Z,15.90
2018-05-17T09:50:08.953Z,16.10
2018-05-17T09:51:11.485Z,16.10
2018-05-17T09:52:14.028Z,16.40
2018-05-17T09:53:16.576Z,16.30
2018-05-17T09:54:19.912Z,16.40
2018-05-17T09:55:22.477Z,16.40
2018-05-17T09:56:24.992Z,16.40
2018-05-17T09:57:28.301Z,16.50
2018-05-17T09:58:30.815Z,16.50
2018-05-17T09:59:33.384Z,16.50
2018-05-17T10:00:41.576Z,16.50
2018-05-17T10:01:44.095Z,16.50
2018-05-17T10:02:46.619Z,16.60
2018-05-17T10:03:49.381Z,16.80
2018-05-17T10:04:51.947Z,16.90
2018-05-17T10:05:54.520Z,17.10
2018-05-17T10:06:57.039Z,17.20
2018-05-17T10:07:59.551Z,17.30
2018-05-17T10:09:02.075Z,17.30
2018-05-17T10:10:04.615Z,17.40
2018-05-17T10:11:07.947Z,17.40
2018-05-17T10:12:10.482Z,17.40
2018-05-17T10:13:13.001Z,17.50
2018-05-17T10:14:15.539Z,17.70
2018-05-17T10:15:18.064Z,17.70
2018-05-17T10:16:21.379Z,17.80
2018-05-17T10:17:23.896Z,17.80
2018-05-17T10:18:26.420Z,18.00
2018-05-17T10:19:28.951Z,17.90
2018-05-17T10:20:31.485Z,17.80
2018-05-17T10:21:34.064Z,17.80
2018-05-17T10:22:37.363Z,18.00
2018-05-17T10:23:40.673Z,18.00
2018-05-17T10:24:43.196Z,18.00
2018-05-17T10:25:46.489Z,17.50
2018-05-17T10:26:49.822Z,17.50
2018-05-17T10:27:52.360Z,17.40
2018-05-17T10:28:54.898Z,17.50
2018-05-17T10:29:58.191Z,17.80
2018-05-17T10:31:01.489Z,17.70
2018-05-17T10:32:04.047Z,17.70
2018-05-17T10:33:06.571Z,17.90
2018-05-17T10:34:09.095Z,18.00
2018-05-17T10:35:11.619Z,18.10
2018-05-17T10:36:14.150Z,18.20
2018-05-17T10:37:16.707Z,18.30
2018-05-17T10:38:19.235Z,18.30
2018-05-17T10:39:22.560Z,17.90
2018-05-17T10:40:25.091Z,17.90
2018-05-17T10:41:28.384Z,18.20
2018-05-17T10:42:30.903Z,18.20
2018-05-17T10:43:33.432Z,18.10
2018-05-17T10:44:35.983Z,18.20
2018-05-17T10:45:38.503Z,18.10
2018-05-17T10:46:41.039Z,18.00
2018-05-17T10:47:43.555Z,17.80
2018-05-17T10:48:46.891Z,18.00
2018-05-17T10:49:49.421Z,18.00
2018-05-17T10:50:52.725Z,18.20
2018-05-17T10:51:55.248Z,18.20
2018-05-17T10:52:57.780Z,18.10
2018-05-17T10:54:00.335Z,17.90
2018-05-17T10:55:02.926Z,18.00
2018-05-17T10:56:05.412Z,18.00
2018-05-17T10:57:07.942Z,18.00
2018-05-17T10:58:10.475Z,18.10
2018-05-17T10:59:13.053Z,18.30
2018-05-17T11:00:15.579Z,18.30
2018-05-17T11:01:18.891Z,18.50
2018-05-17T11:02:21.427Z,18.50
2018-05-17T11:03:23.962Z,18.70
2018-05-17T11:04:26.555Z,18.60
2018-05-17T11:05:29.092Z,18.60
2018-05-17T11:06:31.620Z,18.70
2018-05-17T11:07:34.146Z,18.60
2018-05-17T11:08:36.672Z,18.70
2018-05-17T11:09:39.268Z,18.70
2018-05-17T11:10:41.800Z,18.70
2018-05-17T11:11:44.338Z,18.70
2018-05-17T11:12:47.623Z,18.50
2018-05-17T11:13:50.922Z,18.70
2018-05-17T11:14:53.524Z,18.60
2018-05-17T11:15:56.047Z,18.80
2018-05-17T11:16:59.330Z,18.90
2018-05-17T11:18:01.868Z,18.90
2018-05-17T11:19:04.390Z,18.90
2018-05-17T11:20:06.968Z,18.90
2018-05-17T11:21:09.495Z,19.10
2018-05-17T11:22:12.791Z,19.30
2018-05-17T11:23:15.322Z,19.30
2018-05-17T11:24:17.847Z,19.40
2018-05-17T11:25:20.411Z,19.30
2018-05-17T11:26:22.936Z,19.40
2018-05-17T11:27:26.236Z,19.20
2018-05-17T11:28:28.800Z,19.10
2018-05-17T11:29:31.342Z,19.00
2018-05-17T11:30:34.644Z,19.10
2018-05-17T11:31:37.178Z,19.00
2018-05-17T11:32:39.705Z,18.90
2018-05-17T11:33:42.278Z,19.00
2018-05-17T11:34:44.804Z,19.00
2018-05-17T11:35:48.095Z,19.00
2018-05-17T11:36:51.423Z,19.00
2018-05-17T11:37:53.951Z,19.00
2018-05-17T11:38:56.489Z,19.00
2018-05-17T11:39:59.057Z,19.00
2018-05-17T11:41:02.361Z,19.20
2018-05-17T11:42:05.657Z,19.20
2018-05-17T11:43:08.236Z,19.30
2018-05-17T11:44:10.837Z,19.10
2018-05-17T11:45:13.320Z,18.80
2018-05-17T11:46:15.854Z,18.90
2018-05-17T11:47:18.384Z,19.10
2018-05-17T11:48:20.961Z,19.30
2018-05-17T11:49:23.540Z,19.40
2018-05-17T11:50:26.151Z,19.50
2018-05-17T11:51:28.650Z,19.60
2018-05-17T11:52:31.187Z,19.70
2018-05-17T11:53:33.725Z,19.90
2018-05-17T11:54:36.267Z,20.00
2018-05-17T11:55:38.842Z,20.10
2018-05-17T11:56:41.371Z,20.20
2018-05-17T11:57:44.668Z,20.30
2018-05-17T11:58:47.203Z,20.20
2018-05-17T11:59:49.772Z,20.30
2018-05-17T12:00:53.073Z,20.20
2018-05-17T12:01:56.373Z,20.20
2018-05-17T12:02:58.904Z,20.10
2018-05-17T12:04:01.432Z,20.20
2018-05-17T12:05:03.995Z,20.20
2018-05-17T12:06:06.524Z,20.00
2018-05-17T12:07:09.066Z,19.90
2018-05-17T12:08:11.596Z,19.70
2018-05-17T12:09:14.134Z,19.80
2018-05-17T12:10:16.696Z,19.80
2018-05-17T12:11:19.228Z,19.70
2018-05-17T12:12:21.792Z,19.70
2018-05-17T12:13:24.331Z,19.60
2018-05-17T12:14:26.916Z,19.70
2018-05-17T12:15:29.449Z,19.70
2018-05-17T12:16:31.980Z,19.90
2018-05-17T12:17:35.268Z,20.00
2018-05-17T12:18:38.576Z,19.90
2018-05-17T12:19:41.148Z,19.90
2018-05-17T12:20:43.720Z,19.90
2018-05-17T12:21:46.247Z,20.10
2018-05-17T12:22:49.542Z,20.30
2018-05-17T12:23:52.079Z,20.20
2018-05-17T12:24:54.616Z,20.20
2018-05-17T12:25:57.174Z,20.30
2018-05-17T12:26:59.718Z,20.30
2018-05-17T12:28:02.239Z,20.20
2018-05-17T12:29:04.784Z,20.20
2018-05-17T12:30:07.312Z,20.10
2018-05-17T12:31:09.911Z,20.20
2018-05-17T12:32:12.457Z,19.70
2018-05-17T12:33:14.996Z,19.80
2018-05-17T12:34:18.300Z,19.80
2018-05-17T12:35:20.830Z,19.80
2018-05-17T12:36:23.399Z,20.00
2018-05-17T12:37:26.701Z,20.20
2018-05-17T12:38:30.004Z,20.50
2018-05-17T12:39:32.527Z,20.50
2018-05-17T12:40:35.061Z,20.50
2018-05-17T12:41:37.624Z,20.20
2018-05-17T12:42:40.300Z,19.70
2018-05-17T12:43:42.830Z,19.60
2018-05-17T12:44:45.401Z,19.50
2018-05-17T12:45:47.926Z,19.70
2018-05-17T12:46:50.488Z,19.80
2018-05-17T12:47:53.019Z,19.90
2018-05-17T12:48:55.579Z,20.10
2018-05-17T12:49:58.107Z,20.20
2018-05-17T12:51:01.395Z,20.40
2018-05-17T12:52:04.690Z,20.50
2018-05-17T12:53:07.227Z,20.50
2018-05-17T12:54:09.795Z,20.50
2018-05-17T12:55:12.324Z,20.70
2018-05-17T12:56:14.846Z,20.80
2018-05-17T12:57:18.140Z,20.50
2018-05-17T12:58:21.464Z,20.30
2018-05-17T12:59:23.987Z,20.30
2018-05-17T13:00:26.543Z,20.20
2018-05-17T13:01:29.860Z,20.50
2018-05-17T13:02:32.674Z,20.50
2018-05-17T13:03:35.202Z,20.50
2018-05-17T13:04:37.764Z,20.70
2018-05-17T13:05:40.300Z,20.60
2018-05-17T13:06:43.635Z,20.80
2018-05-17T13:07:46.165Z,20.80
2018-05-17T13:08:48.729Z,20.80
2018-05-17T13:09:52.025Z,21.00
2018-05-17T13:10:54.553Z,20.90
2018-05-17T13:11:57.076Z,21.20
2018-05-17T13:12:59.709Z,21.20
2018-05-17T13:14:02.179Z,21.20
2018-05-17T13:15:05.468Z,21.40
2018-05-17T13:16:07.997Z,21.40
2018-05-17T13:17:10.523Z,21.70
2018-05-17T13:18:13.050Z,21.50
2018-05-17T13:19:16.376Z,21.50
2018-05-17T13:20:18.920Z,21.50
2018-05-17T13:21:21.441Z,21.50
2018-05-17T13:22:23.968Z,21.40
2018-05-17T13:23:26.498Z,21.40
2018-05-17T13:24:29.819Z,21.20
2018-05-17T13:25:32.351Z,21.20
2018-05-17T13:26:35.643Z,21.50
2018-05-17T13:27:38.203Z,21.50
2018-05-17T13:28:41.506Z,21.60